sensor_id;sensor_type;location;lat;lon;timestamp;temperature;humidity
34099;DHT22;20374;49.474;10.944;2024-01-15T00:01:27;-3.70;99.90
34099;DHT22;20374;49.474;10.944;2024-01-15T00:03:53;-3.70;99.90
34099;DHT22;20374;49.474;10.944;2024-01-15T00:06:19;-3.60;99.90
34099;DHT22;20374;49.474;10.944;2024-01-15T00:08:45;-3.70;99.90
34099;DHT22;20374;49.474;10.944;2024-01-15T00:11:11;-3.70;99.90
34099;DHT22;20374;49.474;10.944;2024-01-15T00:13:36;-3.80;99.90
34099;DHT22;20374;49.474;10.944;2024-01-15T00:16:04;-3.80;99.90
34099;DHT22;20374;49.474;10.944;2024-01-15T00:18:30;-3.80;99.90
34099;DHT22;20374;49.474;10.944;2024-01-15T00:20:55;-3.80;99.90
34099;DHT22;20374;49.474;10.944;2024-01-15T00:23:22;-3.80;99.90
34099;DHT22;20374;49.474;10.944;2024-01-15T00:25:50;-3.80;99.90
34099;DHT22;20374;49.474;10.944;2024-01-15T00:28:16;-3.80;99.90
34099;DHT22;20374;49.474;10.944;2024-01-15T00:30:42;-3.80;99.90
34099;DHT22;20374;49.474;10.944;2024-01-15T00:33:08;-3.80;99.90
34099;DHT22;20374;49.474;10.944;2024-01-15T00:35:34;-3.80;99.90
34099;DHT22;20374;49.474;10.944;2024-01-15T00:38:00;-3.80;99.90
34099;DHT22;20374;49.474;10.944;2024-01-15T00:40:26;-3.80;99.90
34099;DHT22;20374;49.474;10.944;2024-01-15T00:42:52;-3.80;99.90
34099;DHT22;20374;49.474;10.944;2024-01-15T00:45:18;-3.70;99.90
34099;DHT22;20374;49.474;10.944;2024-01-15T00:47:44;-3.70;99.90
34099;DHT22;20374;49.474;10.944;2024-01-15T00:50:10;-3.80;99.90
34099;DHT22;20374;49.474;10.944;2024-01-15T00:52:35;-3.70;99.90
34099;DHT22;20374;49.474;10.944;2024-01-15T00:55:01;-3.70;99.90
34099;DHT22;20374;49.474;10.944;2024-01-15T00:57:27;-3.70;99.90
34099;DHT22;20374;49.474;10.944;2024-01-15T00:59:53;-3.70;99.90
34099;DHT22;20374;49.474;10.944;2024-01-15T01:02:19;-3.70;99.90
34099;DHT22;20374;49.474;10.944;2024-01-15T01:04:45;-3.60;99.90
34099;DHT22;20374;49.474;10.944;2024-01-15T01:07:11;-3.60;99.90
34099;DHT22;20374;49.474;10.944;2024-01-15T01:09:37;-3.60;99.90
34099;DHT22;20374;49.474;10.944;2024-01-15T01:12:03;-3.60;99.90
34099;DHT22;20374;49.474;10.944;2024-01-15T01:14:29;-3.50;99.90
34099;DHT22;20374;49.474;10.944;2024-01-15T01:16:55;-3.50;99.90
34099;DHT22;20374;49.474;10.944;2024-01-15T01:19:20;-3.50;99.90
34099;DHT22;20374;49.474;10.944;2024-01-15T01:21:46;-3.50;99.90
34099;DHT22;20374;49.474;10.944;2024-01-15T01:24:12;-3.50;99.90
34099;DHT22;20374;49.474;10.944;2024-01-15T01:26:38;-3.50;99.90
34099;DHT22;20374;49.474;10.944;2024-01-15T01:29:04;-3.40;99.90
34099;DHT22;20374;49.474;10.944;2024-01-15T01:31:30;-3.40;99.90
34099;DHT22;20374;49.474;10.944;2024-01-15T01:33:56;-3.40;99.90
34099;DHT22;20374;49.474;10.944;2024-01-15T01:36:22;-3.40;99.90
34099;DHT22;20374;49.474;10.944;2024-01-15T01:38:48;-3.40;99.90
34099;DHT22;20374;49.474;10.944;2024-01-15T01:41:14;-3.30;99.90
34099;DHT22;20374;49.474;10.944;2024-01-15T01:43:40;-3.30;99.90
34099;DHT22;20374;49.474;10.944;2024-01-15T01:46:06;-3.20;99.90
34099;DHT22;20374;49.474;10.944;2024-01-15T01:48:33;-3.20;99.90
34099;DHT22;20374;49.474;10.944;2024-01-15T01:51:01;-3.20;99.90
34099;DHT22;20374;49.474;10.944;2024-01-15T01:53:29;-3.20;99.90
34099;DHT22;20374;49.474;10.944;2024-01-15T01:55:56;-3.20;99.90
34099;DHT22;20374;49.474;10.944;2024-01-15T01:58:23;-3.20;99.90
34099;DHT22;20374;49.474;10.944;2024-01-15T02:00:49;-3.20;99.90
34099;DHT22;20374;49.474;10.944;2024-01-15T02:03:15;-3.20;99.90
34099;DHT22;20374;49.474;10.944;2024-01-15T02:05:42;-3.20;99.90
34099;DHT22;20374;49.474;10.944;2024-01-15T02:08:10;-3.20;99.90
34099;DHT22;20374;49.474;10.944;2024-01-15T02:10:36;-3.20;99.90
34099;DHT22;20374;49.474;10.944;2024-01-15T02:13:02;-3.20;99.90
34099;DHT22;20374;49.474;10.944;2024-01-15T02:15:28;-3.20;99.90
34099;DHT22;20374;49.474;10.944;2024-01-15T02:18:05;-3.20;99.90
34099;DHT22;20374;49.474;10.944;2024-01-15T02:20:33;-3.20;99.90
34099;DHT22;20374;49.474;10.944;2024-01-15T02:25:42;-3.20;99.90
34099;DHT22;20374;49.474;10.944;2024-01-15T02:28:11;-3.10;99.90
34099;DHT22;20374;49.474;10.944;2024-01-15T02:30:38;-3.10;99.90
34099;DHT22;20374;49.474;10.944;2024-01-15T02:33:10;-3.10;99.90
34099;DHT22;20374;49.474;10.944;2024-01-15T02:35:36;-3.10;99.90
34099;DHT22;20374;49.474;10.944;2024-01-15T02:38:03;-3.00;99.90
34099;DHT22;20374;49.474;10.944;2024-01-15T02:40:29;-3.00;99.90
34099;DHT22;20374;49.474;10.944;2024-01-15T02:42:55;-3.00;99.90
34099;DHT22;20374;49.474;10.944;2024-01-15T02:45:21;-2.90;99.90
34099;DHT22;20374;49.474;10.944;2024-01-15T02:47:47;-2.90;99.90
34099;DHT22;20374;49.474;10.944;2024-01-15T02:50:14;-2.90;99.90
34099;DHT22;20374;49.474;10.944;2024-01-15T02:52:40;-2.90;99.90
34099;DHT22;20374;49.474;10.944;2024-01-15T02:55:07;-2.90;99.90
34099;DHT22;20374;49.474;10.944;2024-01-15T02:57:33;-2.90;99.90
34099;DHT22;20374;49.474;10.944;2024-01-15T02:59:59;-2.90;99.90
34099;DHT22;20374;49.474;10.944;2024-01-15T03:02:24;-2.90;99.90
34099;DHT22;20374;49.474;10.944;2024-01-15T03:04:51;-2.80;99.90
34099;DHT22;20374;49.474;10.944;2024-01-15T03:07:17;-2.80;99.90
34099;DHT22;20374;49.474;10.944;2024-01-15T03:09:43;-2.80;99.90
34099;DHT22;20374;49.474;10.944;2024-01-15T03:12:09;-2.80;99.90
34099;DHT22;20374;49.474;10.944;2024-01-15T03:14:35;-2.80;99.90
34099;DHT22;20374;49.474;10.944;2024-01-15T03:17:01;-2.80;99.90
34099;DHT22;20374;49.474;10.944;2024-01-15T03:19:27;-2.80;99.90
34099;DHT22;20374;49.474;10.944;2024-01-15T03:21:53;-2.80;99.90
34099;DHT22;20374;49.474;10.944;2024-01-15T03:24:20;-2.80;99.90
34099;DHT22;20374;49.474;10.944;2024-01-15T03:26:46;-2.80;99.90
34099;DHT22;20374;49.474;10.944;2024-01-15T03:29:12;-2.80;99.90
34099;DHT22;20374;49.474;10.944;2024-01-15T03:31:38;-2.80;99.90
34099;DHT22;20374;49.474;10.944;2024-01-15T03:34:04;-2.70;99.90
34099;DHT22;20374;49.474;10.944;2024-01-15T03:36:30;-2.70;99.90
34099;DHT22;20374;49.474;10.944;2024-01-15T03:38:55;-2.60;99.90
34099;DHT22;20374;49.474;10.944;2024-01-15T03:41:21;-2.60;99.90
34099;DHT22;20374;49.474;10.944;2024-01-15T03:43:47;-2.60;99.90
34099;DHT22;20374;49.474;10.944;2024-01-15T03:46:13;-2.60;99.90
34099;DHT22;20374;49.474;10.944;2024-01-15T03:48:39;-2.60;99.90
34099;DHT22;20374;49.474;10.944;2024-01-15T03:51:05;-2.60;99.90
34099;DHT22;20374;49.474;10.944;2024-01-15T03:53:31;-2.60;99.90
34099;DHT22;20374;49.474;10.944;2024-01-15T03:55:57;-2.60;99.90
34099;DHT22;20374;49.474;10.944;2024-01-15T03:58:22;-2.60;99.90
34099;DHT22;20374;49.474;10.944;2024-01-15T04:00:48;-2.60;99.90
34099;DHT22;20374;49.474;10.944;2024-01-15T04:03:15;-2.60;99.90
34099;DHT22;20374;49.474;10.944;2024-01-15T04:05:40;-2.60;99.90
34099;DHT22;20374;49.474;10.944;2024-01-15T04:08:06;-2.60;99.90
34099;DHT22;20374;49.474;10.944;2024-01-15T04:10:32;-2.60;99.90
34099;DHT22;20374;49.474;10.944;2024-01-15T04:12:58;-2.60;99.90
34099;DHT22;20374;49.474;10.944;2024-01-15T04:15:25;-2.50;99.90
34099;DHT22;20374;49.474;10.944;2024-01-15T04:17:52;-2.60;99.90
34099;DHT22;20374;49.474;10.944;2024-01-15T04:20:20;-2.50;99.90
34099;DHT22;20374;49.474;10.944;2024-01-15T04:22:46;-2.50;99.90
34099;DHT22;20374;49.474;10.944;2024-01-15T04:25:12;-2.50;99.90
34099;DHT22;20374;49.474;10.944;2024-01-15T04:27:38;-2.50;99.90
34099;DHT22;20374;49.474;10.944;2024-01-15T04:30:05;-2.50;99.90
34099;DHT22;20374;49.474;10.944;2024-01-15T04:32:31;-2.40;99.90
34099;DHT22;20374;49.474;10.944;2024-01-15T04:34:56;-2.40;99.90
34099;DHT22;20374;49.474;10.944;2024-01-15T04:37:22;-2.40;99.90
34099;DHT22;20374;49.474;10.944;2024-01-15T04:39:48;-2.40;99.90
34099;DHT22;20374;49.474;10.944;2024-01-15T04:42:14;-2.40;99.90
34099;DHT22;20374;49.474;10.944;2024-01-15T04:44:40;-2.40;99.90
34099;DHT22;20374;49.474;10.944;2024-01-15T04:47:06;-2.30;99.90
34099;DHT22;20374;49.474;10.944;2024-01-15T04:49:32;-2.30;99.90
34099;DHT22;20374;49.474;10.944;2024-01-15T04:51:58;-2.30;99.90
34099;DHT22;20374;49.474;10.944;2024-01-15T04:54:23;-2.30;99.90
34099;DHT22;20374;49.474;10.944;2024-01-15T04:56:49;-2.30;99.90
34099;DHT22;20374;49.474;10.944;2024-01-15T04:59:15;-2.30;99.90
34099;DHT22;20374;49.474;10.944;2024-01-15T05:01:41;-2.30;99.90
34099;DHT22;20374;49.474;10.944;2024-01-15T05:04:07;-2.30;99.90
34099;DHT22;20374;49.474;10.944;2024-01-15T05:06:33;-2.30;99.90
34099;DHT22;20374;49.474;10.944;2024-01-15T05:08:59;-2.30;99.90
34099;DHT22;20374;49.474;10.944;2024-01-15T05:11:26;-2.30;99.90
34099;DHT22;20374;49.474;10.944;2024-01-15T05:13:52;-2.20;99.90
34099;DHT22;20374;49.474;10.944;2024-01-15T05:16:18;-2.20;99.90
34099;DHT22;20374;49.474;10.944;2024-01-15T05:18:43;-2.20;99.90
34099;DHT22;20374;49.474;10.944;2024-01-15T05:21:09;-2.20;99.90
34099;DHT22;20374;49.474;10.944;2024-01-15T05:23:35;-2.20;99.90
34099;DHT22;20374;49.474;10.944;2024-01-15T05:26:01;-2.20;99.90
34099;DHT22;20374;49.474;10.944;2024-01-15T05:28:28;-2.20;99.90
34099;DHT22;20374;49.474;10.944;2024-01-15T05:30:54;-2.20;99.90
34099;DHT22;20374;49.474;10.944;2024-01-15T05:33:22;-2.20;99.90
34099;DHT22;20374;49.474;10.944;2024-01-15T05:35:48;-2.20;99.90
34099;DHT22;20374;49.474;10.944;2024-01-15T05:38:16;-2.10;99.90
34099;DHT22;20374;49.474;10.944;2024-01-15T05:40:42;-2.10;99.90
34099;DHT22;20374;49.474;10.944;2024-01-15T05:43:08;-2.10;99.90
34099;DHT22;20374;49.474;10.944;2024-01-15T05:45:35;-2.10;99.90
34099;DHT22;20374;49.474;10.944;2024-01-15T05:48:04;-2.00;99.90
34099;DHT22;20374;49.474;10.944;2024-01-15T05:50:30;-2.10;99.90
34099;DHT22;20374;49.474;10.944;2024-01-15T05:52:56;-2.00;99.90
34099;DHT22;20374;49.474;10.944;2024-01-15T05:55:21;-2.00;99.90
34099;DHT22;20374;49.474;10.944;2024-01-15T05:57:47;-2.00;99.90
34099;DHT22;20374;49.474;10.944;2024-01-15T06:00:13;-2.00;99.90
34099;DHT22;20374;49.474;10.944;2024-01-15T06:02:39;-1.90;99.90
34099;DHT22;20374;49.474;10.944;2024-01-15T06:05:06;-1.90;99.90
34099;DHT22;20374;49.474;10.944;2024-01-15T06:07:35;-1.90;99.90
34099;DHT22;20374;49.474;10.944;2024-01-15T06:10:02;-1.80;99.90
34099;DHT22;20374;49.474;10.944;2024-01-15T06:12:29;-1.90;99.90
34099;DHT22;20374;49.474;10.944;2024-01-15T06:14:55;-1.90;99.90
34099;DHT22;20374;49.474;10.944;2024-01-15T06:17:21;-1.90;99.90
34099;DHT22;20374;49.474;10.944;2024-01-15T06:19:46;-1.90;99.90
34099;DHT22;20374;49.474;10.944;2024-01-15T06:22:12;-1.90;99.90
34099;DHT22;20374;49.474;10.944;2024-01-15T06:24:38;-1.90;99.90
34099;DHT22;20374;49.474;10.944;2024-01-15T06:27:04;-1.90;99.90
34099;DHT22;20374;49.474;10.944;2024-01-15T06:29:30;-1.90;99.90
34099;DHT22;20374;49.474;10.944;2024-01-15T06:31:56;-1.90;99.90
34099;DHT22;20374;49.474;10.944;2024-01-15T06:34:22;-1.90;99.90
34099;DHT22;20374;49.474;10.944;2024-01-15T06:36:48;-2.00;99.90
34099;DHT22;20374;49.474;10.944;2024-01-15T06:39:14;-2.00;99.90
34099;DHT22;20374;49.474;10.944;2024-01-15T06:41:40;-2.00;99.90
34099;DHT22;20374;49.474;10.944;2024-01-15T06:44:12;-2.00;99.90
34099;DHT22;20374;49.474;10.944;2024-01-15T06:46:45;-2.10;99.90
34099;DHT22;20374;49.474;10.944;2024-01-15T06:49:11;-2.00;99.90
34099;DHT22;20374;49.474;10.944;2024-01-15T06:51:37;-2.10;99.90
34099;DHT22;20374;49.474;10.944;2024-01-15T06:54:04;-2.00;99.90
34099;DHT22;20374;49.474;10.944;2024-01-15T06:56:30;-2.00;99.90
34099;DHT22;20374;49.474;10.944;2024-01-15T06:58:56;-1.90;99.90
34099;DHT22;20374;49.474;10.944;2024-01-15T07:01:22;-1.90;99.90
34099;DHT22;20374;49.474;10.944;2024-01-15T07:03:48;-1.90;99.90
34099;DHT22;20374;49.474;10.944;2024-01-15T07:06:14;-1.80;99.90
34099;DHT22;20374;49.474;10.944;2024-01-15T07:08:40;-1.80;99.90
34099;DHT22;20374;49.474;10.944;2024-01-15T07:11:06;-1.80;99.90
34099;DHT22;20374;49.474;10.944;2024-01-15T07:13:33;-1.80;99.90
34099;DHT22;20374;49.474;10.944;2024-01-15T07:15:59;-1.80;99.90
34099;DHT22;20374;49.474;10.944;2024-01-15T07:18:25;-1.90;99.90
34099;DHT22;20374;49.474;10.944;2024-01-15T07:20:51;-1.90;99.90
34099;DHT22;20374;49.474;10.944;2024-01-15T07:23:17;-2.00;99.90
34099;DHT22;20374;49.474;10.944;2024-01-15T07:25:43;-2.00;99.90
34099;DHT22;20374;49.474;10.944;2024-01-15T07:28:09;-1.90;99.90
34099;DHT22;20374;49.474;10.944;2024-01-15T07:30:35;-1.90;99.90
34099;DHT22;20374;49.474;10.944;2024-01-15T07:33:04;-1.90;99.90
34099;DHT22;20374;49.474;10.944;2024-01-15T07:35:31;-1.90;99.90
34099;DHT22;20374;49.474;10.944;2024-01-15T07:37:57;-1.90;99.90
34099;DHT22;20374;49.474;10.944;2024-01-15T07:40:23;-1.80;99.90
34099;DHT22;20374;49.474;10.944;2024-01-15T07:42:51;-1.90;99.90
34099;DHT22;20374;49.474;10.944;2024-01-15T07:45:17;-1.80;99.90
34099;DHT22;20374;49.474;10.944;2024-01-15T07:47:43;-1.90;99.90
34099;DHT22;20374;49.474;10.944;2024-01-15T07:50:10;-1.90;99.90
34099;DHT22;20374;49.474;10.944;2024-01-15T07:52:36;-1.90;99.90
34099;DHT22;20374;49.474;10.944;2024-01-15T07:55:02;-1.80;99.90
34099;DHT22;20374;49.474;10.944;2024-01-15T07:57:31;-1.80;99.90
34099;DHT22;20374;49.474;10.944;2024-01-15T07:59:57;-1.80;99.90
34099;DHT22;20374;49.474;10.944;2024-01-15T08:02:22;-1.80;99.90
34099;DHT22;20374;49.474;10.944;2024-01-15T08:04:48;-1.80;99.90
34099;DHT22;20374;49.474;10.944;2024-01-15T08:07:14;-1.70;99.90
34099;DHT22;20374;49.474;10.944;2024-01-15T08:09:40;-1.70;99.90
34099;DHT22;20374;49.474;10.944;2024-01-15T08:12:07;-1.70;99.90
34099;DHT22;20374;49.474;10.944;2024-01-15T08:14:32;-1.70;99.90
34099;DHT22;20374;49.474;10.944;2024-01-15T08:16:59;-1.60;99.90
34099;DHT22;20374;49.474;10.944;2024-01-15T08:19:24;-1.60;99.90
34099;DHT22;20374;49.474;10.944;2024-01-15T08:21:50;-1.60;99.90
34099;DHT22;20374;49.474;10.944;2024-01-15T08:24:16;-1.50;99.90
34099;DHT22;20374;49.474;10.944;2024-01-15T08:26:42;-1.50;99.90
34099;DHT22;20374;49.474;10.944;2024-01-15T08:29:08;-1.50;99.90
34099;DHT22;20374;49.474;10.944;2024-01-15T08:31:34;-1.40;99.90
34099;DHT22;20374;49.474;10.944;2024-01-15T08:34:00;-1.40;99.90
34099;DHT22;20374;49.474;10.944;2024-01-15T08:36:27;-1.40;99.90
34099;DHT22;20374;49.474;10.944;2024-01-15T08:38:56;-1.40;99.90
34099;DHT22;20374;49.474;10.944;2024-01-15T08:41:22;-1.40;99.90
34099;DHT22;20374;49.474;10.944;2024-01-15T08:43:49;-1.40;99.90
34099;DHT22;20374;49.474;10.944;2024-01-15T08:46:14;-1.40;99.90
34099;DHT22;20374;49.474;10.944;2024-01-15T08:48:40;-1.40;99.90
34099;DHT22;20374;49.474;10.944;2024-01-15T08:51:06;-1.30;99.90
34099;DHT22;20374;49.474;10.944;2024-01-15T08:53:33;-1.30;99.90
34099;DHT22;20374;49.474;10.944;2024-01-15T08:56:00;-1.30;99.90
34099;DHT22;20374;49.474;10.944;2024-01-15T08:58:26;-1.30;99.90
34099;DHT22;20374;49.474;10.944;2024-01-15T09:00:52;-1.20;99.90
34099;DHT22;20374;49.474;10.944;2024-01-15T09:03:17;-1.20;99.90
34099;DHT22;20374;49.474;10.944;2024-01-15T09:05:43;-1.20;99.90
34099;DHT22;20374;49.474;10.944;2024-01-15T09:08:09;-1.20;99.90
34099;DHT22;20374;49.474;10.944;2024-01-15T09:10:35;-1.20;99.90
34099;DHT22;20374;49.474;10.944;2024-01-15T09:13:01;-1.20;99.90
34099;DHT22;20374;49.474;10.944;2024-01-15T09:15:29;-1.10;99.90
34099;DHT22;20374;49.474;10.944;2024-01-15T09:17:55;-1.00;99.90
34099;DHT22;20374;49.474;10.944;2024-01-15T09:20:23;-1.00;99.90
34099;DHT22;20374;49.474;10.944;2024-01-15T09:22:49;-1.00;99.90
34099;DHT22;20374;49.474;10.944;2024-01-15T09:25:15;-1.00;99.90
34099;DHT22;20374;49.474;10.944;2024-01-15T09:27:41;-0.90;99.90
34099;DHT22;20374;49.474;10.944;2024-01-15T09:30:07;-0.90;99.90
34099;DHT22;20374;49.474;10.944;2024-01-15T09:32:33;-0.90;99.90
34099;DHT22;20374;49.474;10.944;2024-01-15T09:35:00;-0.80;99.90
34099;DHT22;20374;49.474;10.944;2024-01-15T09:37:25;-0.80;99.90
34099;DHT22;20374;49.474;10.944;2024-01-15T09:39:51;-0.70;99.90
34099;DHT22;20374;49.474;10.944;2024-01-15T09:42:18;-0.70;99.90
34099;DHT22;20374;49.474;10.944;2024-01-15T09:44:44;-0.60;99.90
34099;DHT22;20374;49.474;10.944;2024-01-15T09:47:11;-0.60;99.90
34099;DHT22;20374;49.474;10.944;2024-01-15T09:49:38;-0.60;99.90
34099;DHT22;20374;49.474;10.944;2024-01-15T09:52:07;-0.50;99.90
34099;DHT22;20374;49.474;10.944;2024-01-15T09:54:33;-0.50;99.90
34099;DHT22;20374;49.474;10.944;2024-01-15T09:57:03;-0.40;99.90
34099;DHT22;20374;49.474;10.944;2024-01-15T09:59:30;-0.40;99.90
34099;DHT22;20374;49.474;10.944;2024-01-15T10:01:57;-0.40;99.90
34099;DHT22;20374;49.474;10.944;2024-01-15T10:04:24;-0.40;99.90
34099;DHT22;20374;49.474;10.944;2024-01-15T10:06:51;-0.50;99.90
34099;DHT22;20374;49.474;10.944;2024-01-15T10:09:17;-0.60;99.90
34099;DHT22;20374;49.474;10.944;2024-01-15T10:11:44;-0.60;99.90
34099;DHT22;20374;49.474;10.944;2024-01-15T10:14:11;-0.60;99.90
34099;DHT22;20374;49.474;10.944;2024-01-15T10:16:43;-0.70;99.90
34099;DHT22;20374;49.474;10.944;2024-01-15T10:19:09;-0.70;99.90
34099;DHT22;20374;49.474;10.944;2024-01-15T10:21:36;-0.70;99.90
34099;DHT22;20374;49.474;10.944;2024-01-15T10:24:03;-0.70;99.90
34099;DHT22;20374;49.474;10.944;2024-01-15T10:26:30;-0.70;99.90
34099;DHT22;20374;49.474;10.944;2024-01-15T10:28:58;-0.70;99.90
34099;DHT22;20374;49.474;10.944;2024-01-15T10:31:25;-0.70;99.90
34099;DHT22;20374;49.474;10.944;2024-01-15T10:33:51;-0.70;99.90
34099;DHT22;20374;49.474;10.944;2024-01-15T10:36:17;-0.60;99.90
34099;DHT22;20374;49.474;10.944;2024-01-15T10:38:44;-0.60;99.90
34099;DHT22;20374;49.474;10.944;2024-01-15T10:41:10;-0.60;99.90
34099;DHT22;20374;49.474;10.944;2024-01-15T10:43:36;-0.70;99.90
34099;DHT22;20374;49.474;10.944;2024-01-15T10:46:02;-0.60;99.90
34099;DHT22;20374;49.474;10.944;2024-01-15T10:48:29;-0.50;99.90
34099;DHT22;20374;49.474;10.944;2024-01-15T10:50:57;-0.50;99.90
34099;DHT22;20374;49.474;10.944;2024-01-15T10:53:23;-0.60;99.90
34099;DHT22;20374;49.474;10.944;2024-01-15T10:55:51;-0.50;99.90
34099;DHT22;20374;49.474;10.944;2024-01-15T10:58:21;-0.50;99.90
34099;DHT22;20374;49.474;10.944;2024-01-15T11:00:49;-0.40;99.90
34099;DHT22;20374;49.474;10.944;2024-01-15T11:03:15;-0.40;99.90
34099;DHT22;20374;49.474;10.944;2024-01-15T11:05:43;-0.40;99.90
34099;DHT22;20374;49.474;10.944;2024-01-15T11:08:10;-0.40;99.90
34099;DHT22;20374;49.474;10.944;2024-01-15T11:10:46;-0.30;99.90
34099;DHT22;20374;49.474;10.944;2024-01-15T11:13:19;-0.30;99.90
34099;DHT22;20374;49.474;10.944;2024-01-15T11:15:58;-0.30;99.90
34099;DHT22;20374;49.474;10.944;2024-01-15T11:19:20;-0.20;99.90
34099;DHT22;20374;49.474;10.944;2024-01-15T11:21:21;-0.30;99.90
34099;DHT22;20374;49.474;10.944;2024-01-15T11:23:50;-0.30;99.90
34099;DHT22;20374;49.474;10.944;2024-01-15T11:29:11;-0.40;99.90
34099;DHT22;20374;49.474;10.944;2024-01-15T11:32:08;-0.40;99.90
34099;DHT22;20374;49.474;10.944;2024-01-15T11:34:57;-0.30;99.90
34099;DHT22;20374;49.474;10.944;2024-01-15T11:37:25;-0.30;99.90
34099;DHT22;20374;49.474;10.944;2024-01-15T11:39:52;-0.30;99.90
34099;DHT22;20374;49.474;10.944;2024-01-15T11:42:20;-0.20;99.90
34099;DHT22;20374;49.474;10.944;2024-01-15T11:44:47;-0.10;99.90
34099;DHT22;20374;49.474;10.944;2024-01-15T11:47:13;-0.10;99.90
34099;DHT22;20374;49.474;10.944;2024-01-15T11:52:25;0.00;99.90
34099;DHT22;20374;49.474;10.944;2024-01-15T12:00:07;-0.10;99.90
34099;DHT22;20374;49.474;10.944;2024-01-15T12:02:42;-0.20;99.90
34099;DHT22;20374;49.474;10.944;2024-01-15T12:05:09;-0.20;99.90
34099;DHT22;20374;49.474;10.944;2024-01-15T12:07:38;-0.20;99.90
34099;DHT22;20374;49.474;10.944;2024-01-15T12:10:08;-0.20;99.90
34099;DHT22;20374;49.474;10.944;2024-01-15T12:13:00;-0.20;99.90
34099;DHT22;20374;49.474;10.944;2024-01-15T12:15:29;-0.20;99.90
34099;DHT22;20374;49.474;10.944;2024-01-15T12:17:57;-0.20;99.90
34099;DHT22;20374;49.474;10.944;2024-01-15T12:20:24;-0.20;99.90
34099;DHT22;20374;49.474;10.944;2024-01-15T12:22:50;-0.10;99.90
34099;DHT22;20374;49.474;10.944;2024-01-15T12:25:16;-0.10;99.90
34099;DHT22;20374;49.474;10.944;2024-01-15T12:27:42;-0.10;99.90
34099;DHT22;20374;49.474;10.944;2024-01-15T12:30:11;-0.10;99.90
34099;DHT22;20374;49.474;10.944;2024-01-15T12:32:37;-0.10;99.90
34099;DHT22;20374;49.474;10.944;2024-01-15T12:35:03;0.00;99.90
34099;DHT22;20374;49.474;10.944;2024-01-15T12:37:30;-0.10;99.90
34099;DHT22;20374;49.474;10.944;2024-01-15T12:39:56;0.00;99.90
34099;DHT22;20374;49.474;10.944;2024-01-15T12:42:24;0.00;99.90
34099;DHT22;20374;49.474;10.944;2024-01-15T12:44:50;0.00;99.90
34099;DHT22;20374;49.474;10.944;2024-01-15T12:47:16;0.00;99.90
34099;DHT22;20374;49.474;10.944;2024-01-15T12:49:47;0.00;99.90
34099;DHT22;20374;49.474;10.944;2024-01-15T12:52:18;-0.10;99.90
34099;DHT22;20374;49.474;10.944;2024-01-15T12:54:44;0.00;99.90
34099;DHT22;20374;49.474;10.944;2024-01-15T12:57:10;0.00;99.90
34099;DHT22;20374;49.474;10.944;2024-01-15T12:59:36;0.00;99.90
34099;DHT22;20374;49.474;10.944;2024-01-15T13:02:02;0.00;99.90
34099;DHT22;20374;49.474;10.944;2024-01-15T13:04:28;-0.10;99.90
34099;DHT22;20374;49.474;10.944;2024-01-15T13:06:54;-0.10;99.90
34099;DHT22;20374;49.474;10.944;2024-01-15T13:09:19;-0.10;99.90
34099;DHT22;20374;49.474;10.944;2024-01-15T13:11:45;-0.10;99.90
34099;DHT22;20374;49.474;10.944;2024-01-15T13:14:12;-0.20;99.90
34099;DHT22;20374;49.474;10.944;2024-01-15T13:16:42;-0.20;99.90
34099;DHT22;20374;49.474;10.944;2024-01-15T13:19:09;-0.20;99.90
34099;DHT22;20374;49.474;10.944;2024-01-15T13:21:40;-0.20;99.90
34099;DHT22;20374;49.474;10.944;2024-01-15T13:24:07;-0.20;99.90
34099;DHT22;20374;49.474;10.944;2024-01-15T13:26:33;-0.20;99.90
34099;DHT22;20374;49.474;10.944;2024-01-15T13:29:00;-0.20;99.90
34099;DHT22;20374;49.474;10.944;2024-01-15T13:31:27;-0.20;99.90
34099;DHT22;20374;49.474;10.944;2024-01-15T13:33:53;-0.20;99.90
34099;DHT22;20374;49.474;10.944;2024-01-15T13:36:25;-0.20;99.90
34099;DHT22;20374;49.474;10.944;2024-01-15T13:38:51;-0.20;99.90
34099;DHT22;20374;49.474;10.944;2024-01-15T13:41:19;-0.20;99.90
34099;DHT22;20374;49.474;10.944;2024-01-15T13:43:47;-0.20;99.90
34099;DHT22;20374;49.474;10.944;2024-01-15T13:46:13;-0.30;99.90
34099;DHT22;20374;49.474;10.944;2024-01-15T13:48:39;-0.30;99.90
34099;DHT22;20374;49.474;10.944;2024-01-15T13:51:05;-0.20;99.90
34099;DHT22;20374;49.474;10.944;2024-01-15T13:53:32;-0.20;99.90
34099;DHT22;20374;49.474;10.944;2024-01-15T13:55:57;-0.30;99.90
34099;DHT22;20374;49.474;10.944;2024-01-15T13:58:24;-0.30;99.90
34099;DHT22;20374;49.474;10.944;2024-01-15T14:00:51;-0.30;99.90
34099;DHT22;20374;49.474;10.944;2024-01-15T14:03:17;-0.30;99.90
34099;DHT22;20374;49.474;10.944;2024-01-15T14:05:45;-0.40;99.90
34099;DHT22;20374;49.474;10.944;2024-01-15T14:08:11;-0.40;99.90
34099;DHT22;20374;49.474;10.944;2024-01-15T14:10:37;-0.40;99.90
34099;DHT22;20374;49.474;10.944;2024-01-15T14:13:03;-0.40;99.90
34099;DHT22;20374;49.474;10.944;2024-01-15T14:15:29;-0.40;99.90
34099;DHT22;20374;49.474;10.944;2024-01-15T14:17:55;-0.40;99.90
34099;DHT22;20374;49.474;10.944;2024-01-15T14:20:21;-0.30;99.90
34099;DHT22;20374;49.474;10.944;2024-01-15T14:22:48;-0.30;99.90
34099;DHT22;20374;49.474;10.944;2024-01-15T14:25:13;-0.40;99.90
34099;DHT22;20374;49.474;10.944;2024-01-15T14:27:39;-0.40;99.90
34099;DHT22;20374;49.474;10.944;2024-01-15T14:30:06;-0.40;99.90
34099;DHT22;20374;49.474;10.944;2024-01-15T14:32:34;-0.40;99.90
34099;DHT22;20374;49.474;10.944;2024-01-15T14:35:00;-0.40;99.90
34099;DHT22;20374;49.474;10.944;2024-01-15T14:37:26;-0.40;99.90
34099;DHT22;20374;49.474;10.944;2024-01-15T14:39:52;-0.40;99.90
34099;DHT22;20374;49.474;10.944;2024-01-15T14:42:18;-0.40;99.90
34099;DHT22;20374;49.474;10.944;2024-01-15T14:44:43;-0.40;99.90
34099;DHT22;20374;49.474;10.944;2024-01-15T14:47:09;-0.50;99.90
34099;DHT22;20374;49.474;10.944;2024-01-15T14:49:35;-0.50;99.90
34099;DHT22;20374;49.474;10.944;2024-01-15T14:52:02;-0.50;99.90
34099;DHT22;20374;49.474;10.944;2024-01-15T14:54:28;-0.50;99.90
34099;DHT22;20374;49.474;10.944;2024-01-15T14:56:54;-0.50;99.90
34099;DHT22;20374;49.474;10.944;2024-01-15T14:59:20;-0.50;99.90
34099;DHT22;20374;49.474;10.944;2024-01-15T15:01:46;-0.40;99.90
34099;DHT22;20374;49.474;10.944;2024-01-15T15:04:12;-0.40;99.90
34099;DHT22;20374;49.474;10.944;2024-01-15T15:06:37;-0.40;99.90
34099;DHT22;20374;49.474;10.944;2024-01-15T15:09:04;-0.50;99.90
34099;DHT22;20374;49.474;10.944;2024-01-15T15:11:35;-0.50;99.90
34099;DHT22;20374;49.474;10.944;2024-01-15T15:14:02;-0.50;99.90
34099;DHT22;20374;49.474;10.944;2024-01-15T15:16:30;-0.50;99.90
34099;DHT22;20374;49.474;10.944;2024-01-15T15:18:56;-0.50;99.90
34099;DHT22;20374;49.474;10.944;2024-01-15T15:21:22;-0.50;99.90
34099;DHT22;20374;49.474;10.944;2024-01-15T15:23:48;-0.50;99.90
34099;DHT22;20374;49.474;10.944;2024-01-15T15:26:14;-0.50;99.90
34099;DHT22;20374;49.474;10.944;2024-01-15T15:28:39;-0.60;99.90